sensor_id;sensor_type;location;lat;lon;timestamp;temperature;humidity
65369;HTU21D;51970;53.484;49.488;2023-04-01T00:02:20;5.26;70.90
65369;HTU21D;51970;53.484;49.488;2023-04-01T00:04:46;5.26;71.18
65369;HTU21D;51970;53.484;49.488;2023-04-01T00:07:12;5.25;71.00
65369;HTU21D;51970;53.484;49.488;2023-04-01T00:09:40;5.30;71.43
65369;HTU21D;51970;53.484;49.488;2023-04-01T00:12:06;5.28;71.00
65369;HTU21D;51970;53.484;49.488;2023-04-01T00:14:32;5.23;71.10
65369;HTU21D;51970;53.484;49.488;2023-04-01T00:16:59;5.26;71.02
65369;HTU21D;51970;53.484;49.488;2023-04-01T00:19:25;5.26;71.51
65369;HTU21D;51970;53.484;49.488;2023-04-01T00:21:51;5.27;71.60
65369;HTU21D;51970;53.484;49.488;2023-04-01T00:24:17;5.26;71.03
65369;HTU21D;51970;53.484;49.488;2023-04-01T00:26:44;5.27;71.16
65369;HTU21D;51970;53.484;49.488;2023-04-01T00:29:10;5.25;71.80
65369;HTU21D;51970;53.484;49.488;2023-04-01T00:31:37;5.24;71.38
65369;HTU21D;51970;53.484;49.488;2023-04-01T00:34:03;5.24;71.46
65369;HTU21D;51970;53.484;49.488;2023-04-01T00:36:29;5.21;71.45
65369;HTU21D;51970;53.484;49.488;2023-04-01T00:38:57;5.20;71.44
65369;HTU21D;51970;53.484;49.488;2023-04-01T00:41:27;5.16;71.68
65369;HTU21D;51970;53.484;49.488;2023-04-01T00:44:18;5.06;71.93
65369;HTU21D;51970;53.484;49.488;2023-04-01T00:46:45;5.03;72.06
65369;HTU21D;51970;53.484;49.488;2023-04-01T00:49:12;5.05;71.89
65369;HTU21D;51970;53.484;49.488;2023-04-01T00:51:41;5.09;72.02
65369;HTU21D;51970;53.484;49.488;2023-04-01T00:54:09;5.01;72.29
65369;HTU21D;51970;53.484;49.488;2023-04-01T00:56:50;4.92;72.57
65369;HTU21D;51970;53.484;49.488;2023-04-01T00:59:26;4.87;73.01
65369;HTU21D;51970;53.484;49.488;2023-04-01T01:01:55;4.91;72.80
65369;HTU21D;51970;53.484;49.488;2023-04-01T01:04:41;4.90;72.92
65369;HTU21D;51970;53.484;49.488;2023-04-01T01:17:52;4.65;74.05
65369;HTU21D;51970;53.484;49.488;2023-04-01T01:26:49;4.53;74.10
65369;HTU21D;51970;53.484;49.488;2023-04-01T01:32:36;4.51;74.13
65369;HTU21D;51970;53.484;49.488;2023-04-01T01:35:21;4.48;74.31
65369;HTU21D;51970;53.484;49.488;2023-04-01T01:37:53;4.46;74.51
65369;HTU21D;51970;53.484;49.488;2023-04-01T01:40:21;4.41;74.34
65369;HTU21D;51970;53.484;49.488;2023-04-01T01:42:53;4.39;74.44
65369;HTU21D;51970;53.484;49.488;2023-04-01T01:45:23;4.37;74.22
65369;HTU21D;51970;53.484;49.488;2023-04-01T01:47:51;4.33;74.54
65369;HTU21D;51970;53.484;49.488;2023-04-01T01:50:19;4.34;74.28
65369;HTU21D;51970;53.484;49.488;2023-04-01T01:52:45;4.31;74.34
65369;HTU21D;51970;53.484;49.488;2023-04-01T01:55:28;4.30;74.57
65369;HTU21D;51970;53.484;49.488;2023-04-01T01:57:59;4.27;74.70
65369;HTU21D;51970;53.484;49.488;2023-04-01T02:00:27;4.24;74.72
65369;HTU21D;51970;53.484;49.488;2023-04-01T02:02:53;4.21;74.88
65369;HTU21D;51970;53.484;49.488;2023-04-01T02:05:23;4.18;74.96
65369;HTU21D;51970;53.484;49.488;2023-04-01T02:08:21;4.20;74.96
65369;HTU21D;51970;53.484;49.488;2023-04-01T02:11:01;4.22;75.26
65369;HTU21D;51970;53.484;49.488;2023-04-01T02:13:56;4.20;75.24
65369;HTU21D;51970;53.484;49.488;2023-04-01T02:17:11;4.21;75.38
65369;HTU21D;51970;53.484;49.488;2023-04-01T02:19:13;4.29;75.04
65369;HTU21D;51970;53.484;49.488;2023-04-01T02:21:41;4.28;75.04
65369;HTU21D;51970;53.484;49.488;2023-04-01T02:24:12;4.27;74.96
65369;HTU21D;51970;53.484;49.488;2023-04-01T02:26:40;4.28;74.88
65369;HTU21D;51970;53.484;49.488;2023-04-01T02:29:08;4.30;74.75
65369;HTU21D;51970;53.484;49.488;2023-04-01T02:31:35;4.31;75.07
65369;HTU21D;51970;53.484;49.488;2023-04-01T02:34:02;4.31;75.12
65369;HTU21D;51970;53.484;49.488;2023-04-01T02:36:29;4.36;74.98
65369;HTU21D;51970;53.484;49.488;2023-04-01T02:38:57;4.34;74.83
65369;HTU21D;51970;53.484;49.488;2023-04-01T02:41:28;4.39;74.20
65369;HTU21D;51970;53.484;49.488;2023-04-01T02:43:54;4.38;74.28
65369;HTU21D;51970;53.484;49.488;2023-04-01T02:46:20;4.43;74.17
65369;HTU21D;51970;53.484;49.488;2023-04-01T02:48:46;4.47;74.12
65369;HTU21D;51970;53.484;49.488;2023-04-01T02:51:13;4.57;73.92
65369;HTU21D;51970;53.484;49.488;2023-04-01T02:53:39;4.51;73.68
65369;HTU21D;51970;53.484;49.488;2023-04-01T02:56:06;4.52;73.68
65369;HTU21D;51970;53.484;49.488;2023-04-01T02:58:32;4.59;73.32
65369;HTU21D;51970;53.484;49.488;2023-04-01T03:00:58;4.60;73.64
65369;HTU21D;51970;53.484;49.488;2023-04-01T03:03:24;4.66;72.99
65369;HTU21D;51970;53.484;49.488;2023-04-01T03:05:50;4.75;73.12
65369;HTU21D;51970;53.484;49.488;2023-04-01T03:08:17;4.79;72.30
65369;HTU21D;51970;53.484;49.488;2023-04-01T03:10:43;4.87;72.41
65369;HTU21D;51970;53.484;49.488;2023-04-01T03:13:10;4.95;72.43
65369;HTU21D;51970;53.484;49.488;2023-04-01T03:15:36;5.08;72.24
65369;HTU21D;51970;53.484;49.488;2023-04-01T03:18:02;5.22;71.58
65369;HTU21D;51970;53.484;49.488;2023-04-01T03:20:29;5.27;70.81
65369;HTU21D;51970;53.484;49.488;2023-04-01T03:22:55;5.32;70.53
65369;HTU21D;51970;53.484;49.488;2023-04-01T03:25:21;5.23;70.62
65369;HTU21D;51970;53.484;49.488;2023-04-01T03:27:47;5.21;71.47
65369;HTU21D;51970;53.484;49.488;2023-04-01T03:30:15;5.22;70.35
65369;HTU21D;51970;53.484;49.488;2023-04-01T03:32:41;5.30;70.48
65369;HTU21D;51970;53.484;49.488;2023-04-01T03:35:09;5.39;70.07
65369;HTU21D;51970;53.484;49.488;2023-04-01T03:37:36;5.49;70.32
65369;HTU21D;51970;53.484;49.488;2023-04-01T03:40:02;5.51;69.96
65369;HTU21D;51970;53.484;49.488;2023-04-01T03:42:30;5.60;69.40
65369;HTU21D;51970;53.484;49.488;2023-04-01T03:44:57;5.79;69.22
65369;HTU21D;51970;53.484;49.488;2023-04-01T03:47:23;5.90;68.07
65369;HTU21D;51970;53.484;49.488;2023-04-01T03:49:52;6.04;68.24
65369;HTU21D;51970;53.484;49.488;2023-04-01T03:52:27;6.09;67.25
65369;HTU21D;51970;53.484;49.488;2023-04-01T03:54:55;6.06;68.16
65369;HTU21D;51970;53.484;49.488;2023-04-01T03:57:23;5.98;67.89
65369;HTU21D;51970;53.484;49.488;2023-04-01T03:59:50;6.12;67.47
65369;HTU21D;51970;53.484;49.488;2023-04-01T04:02:17;6.20;67.33
65369;HTU21D;51970;53.484;49.488;2023-04-01T04:04:43;6.28;66.49
65369;HTU21D;51970;53.484;49.488;2023-04-01T04:07:10;6.26;67.30
65369;HTU21D;51970;53.484;49.488;2023-04-01T04:09:36;6.28;67.55
65369;HTU21D;51970;53.484;49.488;2023-04-01T04:12:03;6.20;66.85
65369;HTU21D;51970;53.484;49.488;2023-04-01T04:14:31;6.08;67.16
65369;HTU21D;51970;53.484;49.488;2023-04-01T04:16:59;6.13;67.89
65369;HTU21D;51970;53.484;49.488;2023-04-01T04:19:30;6.29;66.81
65369;HTU21D;51970;53.484;49.488;2023-04-01T04:21:57;6.27;67.08
65369;HTU21D;51970;53.484;49.488;2023-04-01T04:24:26;6.36;66.28
65369;HTU21D;51970;53.484;49.488;2023-04-01T04:26:53;6.40;66.27
65369;HTU21D;51970;53.484;49.488;2023-04-01T04:29:20;6.51;65.80
65369;HTU21D;51970;53.484;49.488;2023-04-01T04:31:46;6.58;64.47
65369;HTU21D;51970;53.484;49.488;2023-04-01T04:34:13;6.63;65.11
65369;HTU21D;51970;53.484;49.488;2023-04-01T04:36:39;6.75;64.67
65369;HTU21D;51970;53.484;49.488;2023-04-01T04:39:06;6.70;65.27
65369;HTU21D;51970;53.484;49.488;2023-04-01T04:41:32;6.81;64.42
65369;HTU21D;51970;53.484;49.488;2023-04-01T04:44:01;6.88;64.22
65369;HTU21D;51970;53.484;49.488;2023-04-01T04:46:29;7.01;64.29
65369;HTU21D;51970;53.484;49.488;2023-04-01T04:48:55;7.19;63.45
65369;HTU21D;51970;53.484;49.488;2023-04-01T04:51:22;7.25;63.01
65369;HTU21D;51970;53.484;49.488;2023-04-01T04:53:50;7.26;62.82
65369;HTU21D;51970;53.484;49.488;2023-04-01T04:56:19;7.29;62.12
65369;HTU21D;51970;53.484;49.488;2023-04-01T04:58:46;7.43;61.34
65369;HTU21D;51970;53.484;49.488;2023-04-01T05:01:16;7.47;61.31
65369;HTU21D;51970;53.484;49.488;2023-04-01T05:03:43;7.60;60.65
65369;HTU21D;51970;53.484;49.488;2023-04-01T05:06:12;7.52;60.75
65369;HTU21D;51970;53.484;49.488;2023-04-01T05:08:38;7.62;60.11
65369;HTU21D;51970;53.484;49.488;2023-04-01T05:11:18;7.79;59.40
65369;HTU21D;51970;53.484;49.488;2023-04-01T05:13:45;7.70;58.17
65369;HTU21D;51970;53.484;49.488;2023-04-01T05:16:16;7.77;57.70
65369;HTU21D;51970;53.484;49.488;2023-04-01T05:18:45;7.87;57.61
65369;HTU21D;51970;53.484;49.488;2023-04-01T05:21:13;7.81;57.45
65369;HTU21D;51970;53.484;49.488;2023-04-01T05:23:39;7.69;57.09
65369;HTU21D;51970;53.484;49.488;2023-04-01T05:26:08;7.48;57.08
65369;HTU21D;51970;53.484;49.488;2023-04-01T05:28:39;7.62;57.69
65369;HTU21D;51970;53.484;49.488;2023-04-01T05:31:06;7.84;56.77
65369;HTU21D;51970;53.484;49.488;2023-04-01T05:33:33;7.77;56.08
65369;HTU21D;51970;53.484;49.488;2023-04-01T05:36:07;7.74;55.95
65369;HTU21D;51970;53.484;49.488;2023-04-01T05:38:34;7.97;55.37
65369;HTU21D;51970;53.484;49.488;2023-04-01T05:41:01;8.00;54.84
65369;HTU21D;51970;53.484;49.488;2023-04-01T05:43:29;7.93;54.45
65369;HTU21D;51970;53.484;49.488;2023-04-01T05:45:56;8.00;55.80
65369;HTU21D;51970;53.484;49.488;2023-04-01T05:48:23;7.86;53.81
65369;HTU21D;51970;53.484;49.488;2023-04-01T05:50:50;7.76;54.71
65369;HTU21D;51970;53.484;49.488;2023-04-01T05:53:17;7.69;55.31
65369;HTU21D;51970;53.484;49.488;2023-04-01T05:55:44;7.73;55.13
65369;HTU21D;51970;53.484;49.488;2023-04-01T05:58:11;7.79;54.07
65369;HTU21D;51970;53.484;49.488;2023-04-01T06:00:38;7.83;54.51
65369;HTU21D;51970;53.484;49.488;2023-04-01T06:03:17;7.77;53.86
65369;HTU21D;51970;53.484;49.488;2023-04-01T06:05:48;7.98;53.84
65369;HTU21D;51970;53.484;49.488;2023-04-01T06:08:19;8.16;53.12
65369;HTU21D;51970;53.484;49.488;2023-04-01T06:11:04;8.15;53.58
65369;HTU21D;51970;53.484;49.488;2023-04-01T06:16:34;8.18;54.20
65369;HTU21D;51970;53.484;49.488;2023-04-01T06:33:50;8.67;51.34
65369;HTU21D;51970;53.484;49.488;2023-04-01T06:42:15;8.81;51.76
65369;HTU21D;51970;53.484;49.488;2023-04-01T06:45:25;8.96;50.81
65369;HTU21D;51970;53.484;49.488;2023-04-01T06:53:32;8.96;49.92
65369;HTU21D;51970;53.484;49.488;2023-04-01T06:56:15;9.01;49.61
65369;HTU21D;51970;53.484;49.488;2023-04-01T06:59:17;9.19;49.28
65369;HTU21D;51970;53.484;49.488;2023-04-01T07:01:58;9.10;50.42
65369;HTU21D;51970;53.484;49.488;2023-04-01T07:04:36;9.14;49.20
65369;HTU21D;51970;53.484;49.488;2023-04-01T07:07:33;9.09;48.72
65369;HTU21D;51970;53.484;49.488;2023-04-01T07:10:11;9.27;48.15
65369;HTU21D;51970;53.484;49.488;2023-04-01T07:12:56;9.44;48.71
65369;HTU21D;51970;53.484;49.488;2023-04-01T07:15:54;9.42;48.79
65369;HTU21D;51970;53.484;49.488;2023-04-01T07:18:29;9.44;48.73
65369;HTU21D;51970;53.484;49.488;2023-04-01T07:20:59;9.61;47.83
65369;HTU21D;51970;53.484;49.488;2023-04-01T07:23:31;9.80;47.29
65369;HTU21D;51970;53.484;49.488;2023-04-01T07:26:16;9.94;47.65
65369;HTU21D;51970;53.484;49.488;2023-04-01T07:28:48;9.79;46.51
65369;HTU21D;51970;53.484;49.488;2023-04-01T07:50:28;9.84;47.52
65369;HTU21D;51970;53.484;49.488;2023-04-01T07:55:45;9.99;46.19
65369;HTU21D;51970;53.484;49.488;2023-04-01T07:58:28;10.09;45.65
65369;HTU21D;51970;53.484;49.488;2023-04-01T08:06:32;10.38;45.07
65369;HTU21D;51970;53.484;49.488;2023-04-01T08:17:16;10.58;45.12
65369;HTU21D;51970;53.484;49.488;2023-04-01T08:22:41;10.62;44.71
65369;HTU21D;51970;53.484;49.488;2023-04-01T08:25:24;10.67;44.20
65369;HTU21D;51970;53.484;49.488;2023-04-01T08:30:51;10.84;44.51
65369;HTU21D;51970;53.484;49.488;2023-04-01T08:33:27;10.90;44.15
65369;HTU21D;51970;53.484;49.488;2023-04-01T08:36:17;10.81;44.58
65369;HTU21D;51970;53.484;49.488;2023-04-01T08:38:51;10.83;44.42
65369;HTU21D;51970;53.484;49.488;2023-04-01T08:44:46;10.88;43.96
65369;HTU21D;51970;53.484;49.488;2023-04-01T08:47:20;11.03;43.43
65369;HTU21D;51970;53.484;49.488;2023-04-01T08:56:26;11.31;44.42
65369;HTU21D;51970;53.484;49.488;2023-04-01T08:59:04;11.22;43.96
65369;HTU21D;51970;53.484;49.488;2023-04-01T09:15:20;11.78;42.08
65369;HTU21D;51970;53.484;49.488;2023-04-01T09:28:50;11.83;42.87
65369;HTU21D;51970;53.484;49.488;2023-04-01T09:31:38;11.79;42.92
65369;HTU21D;51970;53.484;49.488;2023-04-01T09:40:15;11.97;42.17
65369;HTU21D;51970;53.484;49.488;2023-04-01T09:57:02;12.76;40.73
65369;HTU21D;51970;53.484;49.488;2023-04-01T10:20:15;12.71;39.17
65369;HTU21D;51970;53.484;49.488;2023-04-01T10:23:01;12.87;37.68
65369;HTU21D;51970;53.484;49.488;2023-04-01T10:34:39;13.03;37.57
65369;HTU21D;51970;53.484;49.488;2023-04-01T10:46:39;13.20;37.43
65369;HTU21D;51970;53.484;49.488;2023-04-01T10:50:03;13.14;37.20
65369;HTU21D;51970;53.484;49.488;2023-04-01T11:13:38;13.02;37.29
65369;HTU21D;51970;53.484;49.488;2023-04-01T11:28:15;13.62;36.76
65369;HTU21D;51970;53.484;49.488;2023-04-01T11:34:48;13.77;35.63
65369;HTU21D;51970;53.484;49.488;2023-04-01T11:41:18;13.46;38.04
65369;HTU21D;51970;53.484;49.488;2023-04-01T11:44:20;13.56;37.17
65369;HTU21D;51970;53.484;49.488;2023-04-01T11:47:24;13.50;37.69
65369;HTU21D;51970;53.484;49.488;2023-04-01T11:50:24;13.39;37.59
65369;HTU21D;51970;53.484;49.488;2023-04-01T11:53:30;13.49;37.75
65369;HTU21D;51970;53.484;49.488;2023-04-01T11:59:37;13.14;37.49
65369;HTU21D;51970;53.484;49.488;2023-04-01T12:02:42;13.06;37.49
65369;HTU21D;51970;53.484;49.488;2023-04-01T12:11:25;13.26;36.21
65369;HTU21D;51970;53.484;49.488;2023-04-01T12:14:13;13.24;36.88
65369;HTU21D;51970;53.484;49.488;2023-04-01T12:17:02;13.03;37.56
65369;HTU21D;51970;53.484;49.488;2023-04-01T12:19:43;13.04;36.92
65369;HTU21D;51970;53.484;49.488;2023-04-01T12:25:26;13.05;37.58
65369;HTU21D;51970;53.484;49.488;2023-04-01T12:31:13;12.84;38.07
65369;HTU21D;51970;53.484;49.488;2023-04-01T12:45:49;12.58;38.69
65369;HTU21D;51970;53.484;49.488;2023-04-01T13:03:32;12.38;39.57
65369;HTU21D;51970;53.484;49.488;2023-04-01T13:06:26;12.17;39.79
65369;HTU21D;51970;53.484;49.488;2023-04-01T13:09:12;12.11;40.05
65369;HTU21D;51970;53.484;49.488;2023-04-01T13:18:02;11.97;40.71
65369;HTU21D;51970;53.484;49.488;2023-04-01T13:21:09;11.89;40.41
65369;HTU21D;51970;53.484;49.488;2023-04-01T13:27:25;11.81;40.57
65369;HTU21D;51970;53.484;49.488;2023-04-01T13:30:33;11.82;41.00
65369;HTU21D;51970;53.484;49.488;2023-04-01T13:33:15;11.81;40.77
65369;HTU21D;51970;53.484;49.488;2023-04-01T13:35:51;11.75;41.46
65369;HTU21D;51970;53.484;49.488;2023-04-01T13:41:38;11.54;41.68
65369;HTU21D;51970;53.484;49.488;2023-04-01T13:44:29;11.49;41.31
65369;HTU21D;51970;53.484;49.488;2023-04-01T13:50:34;11.42;41.57
65369;HTU21D;51970;53.484;49.488;2023-04-01T14:01:37;11.22;42.07
65369;HTU21D;51970;53.484;49.488;2023-04-01T14:07:01;11.18;42.32
65369;HTU21D;51970;53.484;49.488;2023-04-01T14:10:07;11.22;42.87
65369;HTU21D;51970;53.484;49.488;2023-04-01T14:15:42;11.12;43.36
65369;HTU21D;51970;53.484;49.488;2023-04-01T14:21:13;11.01;44.28
65369;HTU21D;51970;53.484;49.488;2023-04-01T14:24:12;10.92;44.62
65369;HTU21D;51970;53.484;49.488;2023-04-01T14:30:04;10.77;45.08
65369;HTU21D;51970;53.484;49.488;2023-04-01T14:36:04;10.64;46.04
65369;HTU21D;51970;53.484;49.488;2023-04-01T14:50:57;10.36;46.55
65369;HTU21D;51970;53.484;49.488;2023-04-01T14:53:36;10.33;46.62
65369;HTU21D;51970;53.484;49.488;2023-04-01T14:56:09;10.29;46.64
65369;HTU21D;51970;53.484;49.488;2023-04-01T14:58:57;10.26;46.97
65369;HTU21D;51970;53.484;49.488;2023-04-01T15:10:03;10.03;47.91
65369;HTU21D;51970;53.484;49.488;2023-04-01T15:24:26;9.78;49.08
65369;HTU21D;51970;53.484;49.488;2023-04-01T15:27:14;9.67;49.53
65369;HTU21D;51970;53.484;49.488;2023-04-01T15:35:39;9.50;49.71
65369;HTU21D;51970;53.484;49.488;2023-04-01T15:38:48;9.42;50.37
65369;HTU21D;51970;53.484;49.488;2023-04-01T15:42:08;9.34;50.94
65369;HTU21D;51970;53.484;49.488;2023-04-01T15:44:03;9.33;50.56
65369;HTU21D;51970;53.484;49.488;2023-04-01T15:46:44;9.32;51.31
65369;HTU21D;51970;53.484;49.488;2023-04-01T15:58:16;9.30;53.10
65369;HTU21D;51970;53.484;49.488;2023-04-01T16:01:02;9.34;53.17
65369;HTU21D;51970;53.484;49.488;2023-04-01T16:03:51;9.38;53.13
65369;HTU21D;51970;53.484;49.488;2023-04-01T16:13:03;9.38;53.53
65369;HTU21D;51970;53.484;49.488;2023-04-01T16:15:44;9.40;53.92
65369;HTU21D;51970;53.484;49.488;2023-04-01T16:21:36;9.39;53.84
65369;HTU21D;51970;53.484;49.488;2023-04-01T16:24:15;9.40;54.00
65369;HTU21D;51970;53.484;49.488;2023-04-01T16:26:57;9.37;53.94
65369;HTU21D;51970;53.484;49.488;2023-04-01T16:35:21;9.32;54.16
65369;HTU21D;51970;53.484;49.488;2023-04-01T16:37:59;9.27;54.07
65369;HTU21D;51970;53.484;49.488;2023-04-01T16:46:15;9.16;54.87
65369;HTU21D;51970;53.484;49.488;2023-04-01T16:51:24;9.15;54.78
65369;HTU21D;51970;53.484;49.488;2023-04-01T17:02:30;9.15;54.51
65369;HTU21D;51970;53.484;49.488;2023-04-01T17:05:14;9.12;54.82
65369;HTU21D;51970;53.484;49.488;2023-04-01T17:16:17;9.06;54.65
65369;HTU21D;51970;53.484;49.488;2023-04-01T17:21:57;9.02;54.47
65369;HTU21D;51970;53.484;49.488;2023-04-01T17:24:36;8.98;54.40
65369;HTU21D;51970;53.484;49.488;2023-04-01T17:27:44;8.94;54.76
65369;HTU21D;51970;53.484;49.488;2023-04-01T17:39:01;8.82;55.86
65369;HTU21D;51970;53.484;49.488;2023-04-01T17:42:04;8.79;55.78
65369;HTU21D;51970;53.484;49.488;2023-04-01T17:44:56;8.78;55.88
65369;HTU21D;51970;53.484;49.488;2023-04-01T17:47:58;8.81;55.78
65369;HTU21D;51970;53.484;49.488;2023-04-01T17:50:54;8.77;56.22
65369;HTU21D;51970;53.484;49.488;2023-04-01T17:59:55;8.62;56.39
65369;HTU21D;51970;53.484;49.488;2023-04-01T18:02:51;8.62;56.71
65369;HTU21D;51970;53.484;49.488;2023-04-01T18:09:00;8.51;57.64
65369;HTU21D;51970;53.484;49.488;2023-04-01T18:22:28;8.43;58.54
65369;HTU21D;51970;53.484;49.488;2023-04-01T18:27:50;8.38;58.93
65369;HTU21D;51970;53.484;49.488;2023-04-01T18:30:28;8.32;59.27
65369;HTU21D;51970;53.484;49.488;2023-04-01T18:38:36;8.23;60.00
65369;HTU21D;51970;53.484;49.488;2023-04-01T18:41:33;8.17;59.95
65369;HTU21D;51970;53.484;49.488;2023-04-01T18:44:48;8.20;59.98
65369;HTU21D;51970;53.484;49.488;2023-04-01T18:50:47;8.19;59.73
65369;HTU21D;51970;53.484;49.488;2023-04-01T18:56:05;8.19;59.76
65369;HTU21D;51970;53.484;49.488;2023-04-01T19:01:11;8.20;59.48
65369;HTU21D;51970;53.484;49.488;2023-04-01T19:03:59;8.19;59.44
65369;HTU21D;51970;53.484;49.488;2023-04-01T19:06:41;8.21;59.30
65369;HTU21D;51970;53.484;49.488;2023-04-01T19:09:20;8.18;59.35
65369;HTU21D;51970;53.484;49.488;2023-04-01T19:30:58;8.03;59.67
65369;HTU21D;51970;53.484;49.488;2023-04-01T19:36:52;7.93;60.08
65369;HTU21D;51970;53.484;49.488;2023-04-01T19:44:48;7.89;58.32
65369;HTU21D;51970;53.484;49.488;2023-04-01T19:47:35;7.85;58.29
65369;HTU21D;51970;53.484;49.488;2023-04-01T19:52:37;7.84;58.09
65369;HTU21D;51970;53.484;49.488;2023-04-01T20:00:30;7.85;56.72
65369;HTU21D;51970;53.484;49.488;2023-04-01T20:05:55;7.88;56.59
65369;HTU21D;51970;53.484;49.488;2023-04-01T20:11:03;7.83;55.70
65369;HTU21D;51970;53.484;49.488;2023-04-01T20:16:50;7.79;55.90
65369;HTU21D;51970;53.484;49.488;2023-04-01T20:19:53;7.85;55.15
65369;HTU21D;51970;53.484;49.488;2023-04-01T20:22:24;7.83;55.89
65369;HTU21D;51970;53.484;49.488;2023-04-01T20:24:58;7.84;54.46
65369;HTU21D;51970;53.484;49.488;2023-04-01T20:27:55;7.82;54.75
65369;HTU21D;51970;53.484;49.488;2023-04-01T20:33:16;7.77;54.55
65369;HTU21D;51970;53.484;49.488;2023-04-01T20:41:25;7.78;53.52
65369;HTU21D;51970;53.484;49.488;2023-04-01T20:44:09;7.82;53.66
65369;HTU21D;51970;53.484;49.488;2023-04-01T20:52:07;7.73;54.16
65369;HTU21D;51970;53.484;49.488;2023-04-01T20:57:31;7.85;53.26
65369;HTU21D;51970;53.484;49.488;2023-04-01T21:11:35;7.86;52.97
65369;HTU21D;51970;53.484;49.488;2023-04-01T21:14:35;7.86;52.79
65369;HTU21D;51970;53.484;49.488;2023-04-01T21:17:12;7.90;52.99
65369;HTU21D;51970;53.484;49.488;2023-04-01T21:28:09;7.81;53.78
65369;HTU21D;51970;53.484;49.488;2023-04-01T21:33:59;7.78;54.05
65369;HTU21D;51970;53.484;49.488;2023-04-01T21:53:37;7.61;55.93
65369;HTU21D;51970;53.484;49.488;2023-04-01T21:56:37;7.62;56.00
65369;HTU21D;51970;53.484;49.488;2023-04-01T21:59:19;7.62;55.50
65369;HTU21D;51970;53.484;49.488;2023-04-01T22:02:25;7.62;56.32
65369;HTU21D;51970;53.484;49.488;2023-04-01T22:13:12;7.56;56.38
65369;HTU21D;51970;53.484;49.488;2023-04-01T22:16:17;7.54;56.10
65369;HTU21D;51970;53.484;49.488;2023-04-01T22:18:46;7.53;56.13
65369;HTU21D;51970;53.484;49.488;2023-04-01T22:24:37;7.54;55.94
65369;HTU21D;51970;53.484;49.488;2023-04-01T22:27:19;7.55;57.07
65369;HTU21D;51970;53.484;49.488;2023-04-01T22:30:06;7.48;57.13
65369;HTU21D;51970;53.484;49.488;2023-04-01T22:47:38;7.55;57.93
65369;HTU21D;51970;53.484;49.488;2023-04-01T22:50:24;7.55;57.77
65369;HTU21D;51970;53.484;49.488;2023-04-01T22:53:06;7.58;57.54
65369;HTU21D;51970;53.484;49.488;2023-04-01T22:55:35;7.55;57.85
65369;HTU21D;51970;53.484;49.488;2023-04-01T22:58:08;7.53;57.89
65369;HTU21D;51970;53.484;49.488;2023-04-01T23:00:47;7.54;57.70
65369;HTU21D;51970;53.484;49.488;2023-04-01T23:03:19;7.55;57.78
65369;HTU21D;51970;53.484;49.488;2023-04-01T23:05:53;7.53;57.45
65369;HTU21D;51970;53.484;49.488;2023-04-01T23:11:37;7.47;57.93
65369;HTU21D;51970;53.484;49.488;2023-04-01T23:27:43;7.43;58.13
65369;HTU21D;51970;53.484;49.488;2023-04-01T23:33:26;7.44;58.16
65369;HTU21D;51970;53.484;49.488;2023-04-01T23:36:02;7.44;57.97
65369;HTU21D;51970;53.484;49.488;2023-04-01T23:38:36;7.38;57.97
65369;HTU21D;51970;53.484;49.488;2023-04-01T23:41:05;7.39;58.44
65369;HTU21D;51970;53.484;49.488;2023-04-01T23:43:38;7.37;58.30
65369;HTU21D;51970;53.484;49.488;2023-04-01T23:46:06;7.34;58.10
65369;HTU21D;51970;53.484;49.488;2023-04-01T23:48:37;7.32;58.47
65369;HTU21D;51970;53.484;49.488;2023-04-01T23:51:18;7.27;58.80
65369;HTU21D;51970;53.484;49.488;2023-04-01T23:53:47;7.27;58.95
65369;HTU21D;51970;53.484;49.488;2023-04-01T23:56:16;7.22;59.23
65369;HTU21D;51970;53.484;49.488;2023-04-01T23:58:52;7.17;60.02
